SUD1A SGAS-SBRJ
Flight info
| Callsign | SUD1A |
|---|---|
| Flight time | 1h 48m |
| Altitude | 35000 |
| Route | ROLOK ROLOK UM548 KOXAG UM400 ILTIT DCT ASALU |
| Aircraft | A320/M-SDFGHILORVWY/S |
Departure
| Time | 2026-05-08 14:40 |
|---|---|
| Airport | Silvio Pettirossi International Airport (SGAS) |
Arrival
| Time | 2026-05-08 16:28 |
|---|---|
| Airport | Santos Dumont Airport (SBRJ) |
| Time | Latitude | Longitude | Altitude | Speed | Heading |
|---|---|---|---|---|---|
| 2026-05-08 14:18 | -25.24234 | -57.51546 | 301 ft | 0 kts | 103° |
| 2026-05-08 14:27 | -25.24230 | -57.51561 | 302 ft | 3 kts | 103° |
| 2026-05-08 14:27 | -25.24225 | -57.51582 | 301 ft | 3 kts | 103° |
| 2026-05-08 14:27 | -25.24222 | -57.51599 | 300 ft | 2 kts | 103° |
| 2026-05-08 14:27 | -25.24220 | -57.51616 | 301 ft | 3 kts | 53° |
| 2026-05-08 14:28 | -25.24234 | -57.51626 | 302 ft | 3 kts | 27° |
| 2026-05-08 14:28 | -25.24247 | -57.51634 | 300 ft | 3 kts | 27° |
| 2026-05-08 14:28 | -25.24265 | -57.51643 | 300 ft | 3 kts | 15° |
| 2026-05-08 14:28 | -25.24285 | -57.51647 | 302 ft | 3 kts | 358° |
| 2026-05-08 14:29 | -25.24295 | -57.51647 | 301 ft | 0 kts | 345° |
| 2026-05-08 14:30 | -25.24293 | -57.51649 | 301 ft | 1 kts | 332° |
| 2026-05-08 14:31 | -25.24292 | -57.51658 | 302 ft | 2 kts | 277° |
| 2026-05-08 14:31 | -25.24303 | -57.51685 | 301 ft | 7 kts | 250° |
| 2026-05-08 14:31 | -25.24276 | -57.51759 | 300 ft | 15 kts | 336° |
| 2026-05-08 14:32 | -25.23996 | -57.51699 | 299 ft | 24 kts | 12° |
| 2026-05-08 14:32 | -25.23823 | -57.51657 | 299 ft | 27 kts | 12° |
| 2026-05-08 14:32 | -25.23635 | -57.51611 | 299 ft | 23 kts | 12° |
| 2026-05-08 14:32 | -25.23519 | -57.51584 | 300 ft | 16 kts | 12° |
| 2026-05-08 14:33 | -25.23397 | -57.51554 | 302 ft | 19 kts | 12° |
| 2026-05-08 14:33 | -25.23256 | -57.51520 | 300 ft | 22 kts | 11° |
| 2026-05-08 14:33 | -25.23096 | -57.51480 | 300 ft | 25 kts | 12° |
| 2026-05-08 14:33 | -25.22944 | -57.51443 | 300 ft | 15 kts | 12° |
| 2026-05-08 14:34 | -25.22833 | -57.51416 | 301 ft | 18 kts | 11° |
| 2026-05-08 14:34 | -25.22714 | -57.51387 | 299 ft | 17 kts | 13° |
| 2026-05-08 14:34 | -25.22610 | -57.51363 | 300 ft | 13 kts | 9° |
| 2026-05-08 14:34 | -25.22547 | -57.51403 | 299 ft | 12 kts | 283° |
| 2026-05-08 14:35 | -25.22537 | -57.51452 | 300 ft | 0 kts | 283° |
| 2026-05-08 14:39 | -25.22534 | -57.51464 | 301 ft | 3 kts | 283° |
| 2026-05-08 14:39 | -25.22526 | -57.51502 | 299 ft | 7 kts | 284° |
| 2026-05-08 14:39 | -25.22534 | -57.51555 | 302 ft | 8 kts | 221° |
| 2026-05-08 14:39 | -25.22645 | -57.51583 | 299 ft | 29 kts | 191° |
| 2026-05-08 14:40 | -25.23055 | -57.51683 | 299 ft | 92 kts | 192° |
| 2026-05-08 14:40 | -25.23860 | -57.51875 | 306 ft | 143 kts | 190° |
| 2026-05-08 14:40 | -25.24848 | -57.52127 | 757 ft | 145 kts | 190° |
| 2026-05-08 14:40 | -25.25848 | -57.52377 | 1301 ft | 146 kts | 189° |
| 2026-05-08 14:41 | -25.26849 | -57.52620 | 1855 ft | 148 kts | 188° |
| 2026-05-08 14:41 | -25.27891 | -57.52867 | 2181 ft | 168 kts | 188° |
| 2026-05-08 14:41 | -25.29119 | -57.53156 | 2378 ft | 192 kts | 189° |
| 2026-05-08 14:41 | -25.30510 | -57.53487 | 2650 ft | 217 kts | 189° |
| 2026-05-08 14:42 | -25.32075 | -57.53607 | 3080 ft | 234 kts | 168° |
| 2026-05-08 14:42 | -25.33541 | -57.52815 | 3823 ft | 242 kts | 139° |
| 2026-05-08 14:42 | -25.34421 | -57.51210 | 4621 ft | 255 kts | 108° |
| 2026-05-08 14:42 | -25.34658 | -57.49229 | 5400 ft | 263 kts | 100° |
| 2026-05-08 14:43 | -25.34827 | -57.47175 | 6203 ft | 267 kts | 98° |
| 2026-05-08 14:43 | -25.34986 | -57.45144 | 6932 ft | 271 kts | 97° |
| 2026-05-08 14:43 | -25.35154 | -57.43007 | 7574 ft | 280 kts | 98° |
| 2026-05-08 14:43 | -25.35329 | -57.40829 | 8166 ft | 290 kts | 97° |
| 2026-05-08 14:44 | -25.35510 | -57.38572 | 8765 ft | 299 kts | 95° |
| 2026-05-08 14:44 | -25.35697 | -57.36256 | 9392 ft | 307 kts | 95° |
| 2026-05-08 14:44 | -25.35892 | -57.33872 | 10006 ft | 315 kts | 95° |
| 2026-05-08 14:44 | -25.36027 | -57.31403 | 10342 ft | 332 kts | 89° |
| 2026-05-08 14:45 | -25.36023 | -57.28764 | 10502 ft | 355 kts | 89° |
| 2026-05-08 14:45 | -25.36010 | -57.25948 | 10635 ft | 376 kts | 89° |
| 2026-05-08 14:45 | -25.35993 | -57.23013 | 11082 ft | 386 kts | 88° |
| 2026-05-08 14:45 | -25.35974 | -57.20027 | 11671 ft | 391 kts | 88° |
| 2026-05-08 14:46 | -25.35958 | -57.17047 | 12277 ft | 395 kts | 88° |
| 2026-05-08 14:46 | -25.35943 | -57.13997 | 12870 ft | 399 kts | 87° |
| 2026-05-08 14:46 | -25.35927 | -57.10911 | 13466 ft | 403 kts | 86° |
| 2026-05-08 14:46 | -25.35912 | -57.07794 | 14027 ft | 408 kts | 86° |
| 2026-05-08 14:47 | -25.35900 | -57.04642 | 14527 ft | 412 kts | 86° |
| 2026-05-08 14:47 | -25.35888 | -57.01456 | 15014 ft | 417 kts | 87° |
| 2026-05-08 14:47 | -25.35879 | -56.98235 | 15497 ft | 421 kts | 87° |
| 2026-05-08 14:47 | -25.35869 | -56.94984 | 15979 ft | 425 kts | 87° |
| 2026-05-08 14:48 | -25.35856 | -56.91698 | 16452 ft | 430 kts | 87° |
| 2026-05-08 14:48 | -25.35842 | -56.88377 | 16911 ft | 434 kts | 87° |
| 2026-05-08 14:48 | -25.35824 | -56.85023 | 17370 ft | 438 kts | 87° |
| 2026-05-08 14:48 | -25.35806 | -56.81639 | 17831 ft | 443 kts | 88° |
| 2026-05-08 14:49 | -25.35785 | -56.78220 | 18284 ft | 447 kts | 88° |
| 2026-05-08 14:49 | -25.35763 | -56.74773 | 18689 ft | 451 kts | 87° |
| 2026-05-08 14:49 | -25.35740 | -56.71291 | 19084 ft | 455 kts | 87° |
| 2026-05-08 14:49 | -25.35725 | -56.68922 | 19370 ft | 457 kts | 88° |
| 2026-05-08 14:50 | -25.35694 | -56.64248 | 19931 ft | 461 kts | 88° |
| 2026-05-08 14:50 | -25.35691 | -56.61847 | 20216 ft | 464 kts | 90° |
| 2026-05-08 14:50 | -25.35990 | -56.58325 | 20625 ft | 468 kts | 96° |
| 2026-05-08 14:50 | -25.36401 | -56.54745 | 21038 ft | 471 kts | 96° |
| 2026-05-08 14:51 | -25.36824 | -56.51094 | 21445 ft | 474 kts | 96° |
| 2026-05-08 14:51 | -25.37237 | -56.47518 | 21840 ft | 477 kts | 96° |
| 2026-05-08 14:51 | -25.37654 | -56.43870 | 22236 ft | 480 kts | 96° |
| 2026-05-08 14:51 | -25.38070 | -56.40200 | 22614 ft | 482 kts | 96° |
| 2026-05-08 14:52 | -25.38485 | -56.36510 | 22999 ft | 485 kts | 96° |
| 2026-05-08 14:52 | -25.39327 | -56.29014 | 23718 ft | 491 kts | 96° |
| 2026-05-08 14:52 | -25.39748 | -56.25261 | 24026 ft | 493 kts | 96° |
| 2026-05-08 14:53 | -25.40173 | -56.21490 | 24326 ft | 495 kts | 96° |
| 2026-05-08 14:53 | -25.40593 | -56.17752 | 24618 ft | 498 kts | 96° |
| 2026-05-08 14:53 | -25.41020 | -56.13949 | 24906 ft | 500 kts | 96° |
| 2026-05-08 14:53 | -25.41448 | -56.10125 | 25189 ft | 502 kts | 96° |
| 2026-05-08 14:54 | -25.41875 | -56.06279 | 25469 ft | 505 kts | 96° |
| 2026-05-08 14:54 | -25.42302 | -56.02419 | 25754 ft | 507 kts | 96° |
| 2026-05-08 14:54 | -25.42729 | -55.98538 | 26051 ft | 509 kts | 96° |
| 2026-05-08 14:54 | -25.43157 | -55.94642 | 26318 ft | 512 kts | 96° |
| 2026-05-08 14:55 | -25.43586 | -55.90725 | 26584 ft | 514 kts | 96° |
| 2026-05-08 14:55 | -25.44019 | -55.86794 | 26837 ft | 516 kts | 96° |
| 2026-05-08 14:55 | -25.44456 | -55.82845 | 27089 ft | 518 kts | 96° |
| 2026-05-08 14:55 | -25.44896 | -55.78878 | 27344 ft | 520 kts | 96° |
| 2026-05-08 14:56 | -25.45333 | -55.74897 | 27589 ft | 522 kts | 95° |
| 2026-05-08 14:56 | -25.45768 | -55.70903 | 27831 ft | 524 kts | 95° |
| 2026-05-08 14:56 | -25.46202 | -55.66898 | 28063 ft | 525 kts | 95° |
| 2026-05-08 14:56 | -25.46634 | -55.62875 | 28293 ft | 527 kts | 95° |
| 2026-05-08 14:57 | -25.47067 | -55.58839 | 28511 ft | 529 kts | 95° |
| 2026-05-08 14:57 | -25.47502 | -55.54791 | 28721 ft | 531 kts | 95° |
| 2026-05-08 14:57 | -25.47936 | -55.50730 | 28920 ft | 532 kts | 95° |
| 2026-05-08 14:57 | -25.48368 | -55.46657 | 29133 ft | 533 kts | 95° |
| 2026-05-08 14:58 | -25.48798 | -55.42580 | 29375 ft | 533 kts | 95° |
| 2026-05-08 14:58 | -25.49231 | -55.38504 | 29668 ft | 533 kts | 95° |
| 2026-05-08 14:58 | -25.49662 | -55.34434 | 29950 ft | 532 kts | 95° |
| 2026-05-08 14:58 | -25.50092 | -55.30364 | 30217 ft | 533 kts | 95° |
| 2026-05-08 14:59 | -25.50523 | -55.26289 | 30393 ft | 534 kts | 95° |
| 2026-05-08 14:59 | -25.51381 | -55.18145 | 30891 ft | 531 kts | 95° |
| 2026-05-08 14:59 | -25.51805 | -55.14089 | 31141 ft | 530 kts | 94° |
| 2026-05-08 15:00 | -25.52226 | -55.10040 | 31383 ft | 530 kts | 94° |
| 2026-05-08 15:00 | -25.52648 | -55.05984 | 31622 ft | 529 kts | 94° |
| 2026-05-08 15:00 | -25.53067 | -55.01941 | 31862 ft | 528 kts | 94° |
| 2026-05-08 15:00 | -25.53486 | -54.97903 | 32107 ft | 527 kts | 94° |
| 2026-05-08 15:01 | -25.53905 | -54.93878 | 32385 ft | 526 kts | 94° |
| 2026-05-08 15:01 | -25.54321 | -54.89856 | 32652 ft | 525 kts | 94° |
| 2026-05-08 15:01 | -25.54730 | -54.85847 | 32896 ft | 524 kts | 94° |
| 2026-05-08 15:01 | -25.55135 | -54.81839 | 33148 ft | 524 kts | 94° |
| 2026-05-08 15:02 | -25.55541 | -54.77831 | 33439 ft | 523 kts | 94° |
| 2026-05-08 15:02 | -25.55941 | -54.73889 | 33676 ft | 522 kts | 93° |
| 2026-05-08 15:02 | -25.56347 | -54.69893 | 33896 ft | 522 kts | 93° |
| 2026-05-08 15:02 | -25.56753 | -54.65898 | 34087 ft | 522 kts | 93° |
| 2026-05-08 15:03 | -25.57157 | -54.61912 | 34337 ft | 521 kts | 93° |
| 2026-05-08 15:03 | -25.57560 | -54.57919 | 34523 ft | 521 kts | 93° |
| 2026-05-08 15:03 | -25.57962 | -54.53933 | 34700 ft | 521 kts | 93° |
| 2026-05-08 15:03 | -25.58310 | -54.49947 | 34878 ft | 519 kts | 88° |
| 2026-05-08 15:04 | -25.58396 | -54.41963 | 34979 ft | 519 kts | 86° |
| 2026-05-08 15:04 | -25.58451 | -54.33978 | 35011 ft | 519 kts | 86° |
| 2026-05-08 15:05 | -25.58507 | -54.25987 | 35011 ft | 519 kts | 86° |
| 2026-05-08 15:05 | -25.58552 | -54.17997 | 35010 ft | 519 kts | 86° |
| 2026-05-08 15:06 | -25.58591 | -54.10010 | 35002 ft | 519 kts | 86° |
| 2026-05-08 15:06 | -25.58633 | -54.02018 | 35000 ft | 519 kts | 86° |
| 2026-05-08 15:07 | -25.58670 | -53.94025 | 34991 ft | 519 kts | 86° |
| 2026-05-08 15:07 | -25.58706 | -53.86039 | 34998 ft | 518 kts | 86° |
| 2026-05-08 15:08 | -25.58730 | -53.79406 | 35029 ft | 518 kts | 85° |
| 2026-05-08 15:08 | -25.58771 | -53.70071 | 34996 ft | 518 kts | 86° |
| 2026-05-08 15:09 | -25.58832 | -53.62093 | 34989 ft | 518 kts | 86° |
| 2026-05-08 15:09 | -25.58886 | -53.54114 | 34983 ft | 518 kts | 86° |
| 2026-05-08 15:10 | -25.58929 | -53.46140 | 34979 ft | 518 kts | 85° |
| 2026-05-08 15:10 | -25.58962 | -53.38167 | 34980 ft | 518 kts | 85° |
| 2026-05-08 15:11 | -25.58987 | -53.30192 | 34978 ft | 518 kts | 85° |
| 2026-05-08 15:11 | -25.59012 | -53.22267 | 34962 ft | 518 kts | 86° |
| 2026-05-08 15:12 | -25.59039 | -53.14289 | 34976 ft | 518 kts | 86° |
| 2026-05-08 15:12 | -25.59061 | -53.06319 | 34981 ft | 518 kts | 86° |
| 2026-05-08 15:13 | -25.59081 | -52.98347 | 34962 ft | 517 kts | 86° |
| 2026-05-08 15:13 | -25.59087 | -52.90380 | 34992 ft | 517 kts | 85° |
| 2026-05-08 15:14 | -25.59086 | -52.82417 | 34982 ft | 517 kts | 85° |
| 2026-05-08 15:14 | -25.59090 | -52.74454 | 34957 ft | 517 kts | 86° |
| 2026-05-08 15:15 | -25.59094 | -52.66492 | 34954 ft | 517 kts | 85° |
| 2026-05-08 15:15 | -25.59093 | -52.58535 | 34956 ft | 517 kts | 85° |
| 2026-05-08 15:16 | -25.59080 | -52.50571 | 34943 ft | 517 kts | 85° |
| 2026-05-08 15:16 | -25.59062 | -52.42608 | 34937 ft | 518 kts | 85° |
| 2026-05-08 15:17 | -25.59037 | -52.34627 | 34938 ft | 518 kts | 85° |
| 2026-05-08 15:17 | -25.59010 | -52.26646 | 34926 ft | 518 kts | 85° |
| 2026-05-08 15:18 | -25.58977 | -52.18656 | 34927 ft | 519 kts | 85° |
| 2026-05-08 15:18 | -25.58951 | -52.10649 | 34935 ft | 520 kts | 85° |
| 2026-05-08 15:19 | -25.58916 | -52.02642 | 34932 ft | 520 kts | 85° |
| 2026-05-08 15:19 | -25.58874 | -51.94645 | 34950 ft | 519 kts | 85° |
| 2026-05-08 15:20 | -25.58834 | -51.86693 | 34958 ft | 519 kts | 85° |
| 2026-05-08 15:20 | -25.58778 | -51.78692 | 34949 ft | 519 kts | 85° |
| 2026-05-08 15:21 | -25.58731 | -51.70704 | 34971 ft | 519 kts | 85° |
| 2026-05-08 15:21 | -25.58673 | -51.62715 | 34970 ft | 518 kts | 85° |
| 2026-05-08 15:22 | -25.58605 | -51.54738 | 34955 ft | 518 kts | 84° |
| 2026-05-08 15:22 | -25.58537 | -51.46757 | 34968 ft | 518 kts | 84° |
| 2026-05-08 15:23 | -25.58467 | -51.38781 | 34978 ft | 518 kts | 84° |
| 2026-05-08 15:23 | -25.58397 | -51.30805 | 34968 ft | 518 kts | 84° |
| 2026-05-08 15:24 | -25.58323 | -51.22830 | 34978 ft | 518 kts | 84° |
| 2026-05-08 15:24 | -25.58244 | -51.14856 | 34981 ft | 517 kts | 84° |
| 2026-05-08 15:25 | -25.58157 | -51.06895 | 34978 ft | 517 kts | 84° |
| 2026-05-08 15:25 | -25.58059 | -50.98939 | 34975 ft | 517 kts | 84° |
| 2026-05-08 15:26 | -25.57956 | -50.90980 | 34972 ft | 517 kts | 84° |
| 2026-05-08 15:26 | -25.57853 | -50.83022 | 34947 ft | 517 kts | 84° |
| 2026-05-08 15:27 | -25.57750 | -50.75059 | 34951 ft | 517 kts | 84° |
| 2026-05-08 15:27 | -25.57649 | -50.67086 | 34946 ft | 518 kts | 84° |
| 2026-05-08 15:28 | -25.57537 | -50.59122 | 34952 ft | 517 kts | 83° |
| 2026-05-08 15:28 | -25.57417 | -50.51168 | 35006 ft | 516 kts | 83° |
| 2026-05-08 15:29 | -25.57293 | -50.43269 | 34989 ft | 516 kts | 83° |
| 2026-05-08 15:29 | -25.57165 | -50.35330 | 34966 ft | 515 kts | 83° |
| 2026-05-08 15:30 | -25.57035 | -50.27399 | 34970 ft | 515 kts | 83° |
| 2026-05-08 15:30 | -25.56900 | -50.19473 | 34971 ft | 515 kts | 83° |
| 2026-05-08 15:31 | -25.56754 | -50.11560 | 34973 ft | 513 kts | 83° |
| 2026-05-08 15:31 | -25.56601 | -50.03671 | 34979 ft | 512 kts | 83° |
| 2026-05-08 15:32 | -25.56311 | -49.95810 | 34959 ft | 510 kts | 82° |
| 2026-05-08 15:32 | -25.55934 | -49.87988 | 34971 ft | 508 kts | 82° |
| 2026-05-08 15:33 | -25.55573 | -49.80185 | 34975 ft | 507 kts | 83° |
| 2026-05-08 15:33 | -25.55247 | -49.72396 | 34960 ft | 507 kts | 83° |
| 2026-05-08 15:34 | -25.54920 | -49.64646 | 34952 ft | 507 kts | 82° |
| 2026-05-08 15:34 | -25.54571 | -49.56843 | 34950 ft | 508 kts | 82° |
| 2026-05-08 15:35 | -25.54215 | -49.48982 | 34968 ft | 508 kts | 82° |
| 2026-05-08 15:35 | -25.53863 | -49.41181 | 34998 ft | 507 kts | 82° |
| 2026-05-08 15:36 | -25.53634 | -49.34692 | 35020 ft | 508 kts | 83° |
| 2026-05-08 15:36 | -25.53435 | -49.25608 | 35034 ft | 508 kts | 84° |
| 2026-05-08 15:37 | -25.53236 | -49.17801 | 35037 ft | 506 kts | 81° |
| 2026-05-08 15:37 | -25.52080 | -49.10204 | 35037 ft | 500 kts | 73° |
| 2026-05-08 15:38 | -25.50786 | -49.02636 | 35003 ft | 501 kts | 74° |
| 2026-05-08 15:38 | -25.49718 | -48.96282 | 34975 ft | 502 kts | 74° |
| 2026-05-08 15:39 | -25.48431 | -48.88696 | 34948 ft | 501 kts | 74° |
| 2026-05-08 15:39 | -25.47121 | -48.81120 | 34906 ft | 502 kts | 73° |
| 2026-05-08 15:40 | -25.45810 | -48.73590 | 34909 ft | 502 kts | 73° |
| 2026-05-08 15:40 | -25.44497 | -48.66005 | 34906 ft | 502 kts | 73° |
| 2026-05-08 15:41 | -25.43185 | -48.58418 | 34872 ft | 503 kts | 73° |
| 2026-05-08 15:41 | -25.41862 | -48.50816 | 34863 ft | 504 kts | 73° |
| 2026-05-08 15:42 | -25.40534 | -48.43200 | 34868 ft | 505 kts | 73° |
| 2026-05-08 15:42 | -25.39188 | -48.35561 | 34846 ft | 507 kts | 73° |
| 2026-05-08 15:43 | -25.37832 | -48.27897 | 34849 ft | 508 kts | 73° |
| 2026-05-08 15:43 | -25.36474 | -48.20217 | 34844 ft | 510 kts | 73° |
| 2026-05-08 15:44 | -25.35114 | -48.12522 | 34847 ft | 511 kts | 73° |
| 2026-05-08 15:44 | -25.33751 | -48.04812 | 34855 ft | 511 kts | 73° |
| 2026-05-08 15:45 | -25.32383 | -47.97098 | 34850 ft | 511 kts | 73° |
| 2026-05-08 15:45 | -25.31006 | -47.89386 | 34861 ft | 511 kts | 73° |
| 2026-05-08 15:46 | -25.29620 | -47.81675 | 34873 ft | 511 kts | 73° |
| 2026-05-08 15:46 | -25.28233 | -47.73977 | 34870 ft | 511 kts | 73° |
| 2026-05-08 15:47 | -25.26848 | -47.66288 | 34884 ft | 510 kts | 73° |
| 2026-05-08 15:47 | -25.25455 | -47.58607 | 34874 ft | 510 kts | 73° |
| 2026-05-08 15:48 | -25.23360 | -47.47098 | 34889 ft | 509 kts | 73° |
| 2026-05-08 15:49 | -25.21965 | -47.39429 | 34891 ft | 509 kts | 73° |
| 2026-05-08 15:49 | -25.20569 | -47.31761 | 34898 ft | 509 kts | 74° |
| 2026-05-08 15:50 | -25.19172 | -47.24156 | 34899 ft | 509 kts | 74° |
| 2026-05-08 15:50 | -25.17761 | -47.16506 | 34890 ft | 508 kts | 74° |
| 2026-05-08 15:51 | -25.16331 | -47.08820 | 34900 ft | 508 kts | 74° |
| 2026-05-08 15:51 | -25.14926 | -47.01241 | 34903 ft | 507 kts | 73° |
| 2026-05-08 15:52 | -25.12603 | -46.94022 | 34890 ft | 495 kts | 58° |
| 2026-05-08 15:52 | -25.09554 | -46.87208 | 34896 ft | 495 kts | 58° |
| 2026-05-08 15:53 | -25.06525 | -46.80390 | 34898 ft | 495 kts | 59° |
| 2026-05-08 15:53 | -25.03498 | -46.73569 | 34901 ft | 495 kts | 59° |
| 2026-05-08 15:54 | -25.00466 | -46.66755 | 34907 ft | 495 kts | 58° |
| 2026-05-08 15:54 | -24.97423 | -46.59955 | 34908 ft | 495 kts | 58° |
| 2026-05-08 15:55 | -24.94375 | -46.53160 | 34900 ft | 494 kts | 59° |
| 2026-05-08 15:55 | -24.89816 | -46.42966 | 34905 ft | 494 kts | 58° |
| 2026-05-08 15:56 | -24.86768 | -46.36179 | 34893 ft | 494 kts | 59° |
| 2026-05-08 15:56 | -24.83713 | -46.29395 | 34902 ft | 495 kts | 59° |
| 2026-05-08 15:57 | -24.80661 | -46.22605 | 34910 ft | 495 kts | 59° |
| 2026-05-08 15:57 | -24.77606 | -46.15815 | 34893 ft | 495 kts | 59° |
| 2026-05-08 15:58 | -24.74530 | -46.09023 | 34886 ft | 496 kts | 59° |
| 2026-05-08 15:58 | -24.71451 | -46.02227 | 34897 ft | 497 kts | 59° |
| 2026-05-08 15:59 | -24.68372 | -45.95421 | 34887 ft | 497 kts | 59° |
| 2026-05-08 15:59 | -24.65294 | -45.88608 | 34899 ft | 498 kts | 59° |
| 2026-05-08 16:00 | -24.62208 | -45.81797 | 34902 ft | 498 kts | 59° |
| 2026-05-08 16:00 | -24.59107 | -45.74988 | 34901 ft | 498 kts | 59° |
| 2026-05-08 16:01 | -24.56008 | -45.68187 | 34915 ft | 498 kts | 59° |
| 2026-05-08 16:01 | -24.52909 | -45.61390 | 34923 ft | 498 kts | 59° |
| 2026-05-08 16:02 | -24.49821 | -45.54649 | 34921 ft | 497 kts | 59° |
| 2026-05-08 16:02 | -24.46720 | -45.47879 | 34927 ft | 496 kts | 59° |
| 2026-05-08 16:03 | -24.43622 | -45.41118 | 34934 ft | 495 kts | 59° |
| 2026-05-08 16:03 | -24.40517 | -45.34372 | 34931 ft | 495 kts | 59° |
| 2026-05-08 16:04 | -24.37419 | -45.27631 | 34944 ft | 495 kts | 60° |
| 2026-05-08 16:04 | -24.34328 | -45.20884 | 34944 ft | 495 kts | 60° |
| 2026-05-08 16:05 | -24.31237 | -45.14151 | 34937 ft | 495 kts | 60° |
| 2026-05-08 16:05 | -24.28127 | -45.07423 | 34944 ft | 495 kts | 60° |
| 2026-05-08 16:06 | -24.25021 | -45.00698 | 34942 ft | 495 kts | 60° |
| 2026-05-08 16:06 | -24.21910 | -44.93977 | 34937 ft | 494 kts | 59° |
| 2026-05-08 16:07 | -24.18789 | -44.87264 | 34944 ft | 494 kts | 59° |
| 2026-05-08 16:07 | -24.15669 | -44.80556 | 34949 ft | 494 kts | 60° |
| 2026-05-08 16:08 | -24.12558 | -44.73847 | 34957 ft | 494 kts | 60° |
| 2026-05-08 16:08 | -24.09458 | -44.67136 | 34959 ft | 494 kts | 60° |
| 2026-05-08 16:09 | -24.06915 | -44.61539 | 34954 ft | 494 kts | 60° |
| 2026-05-08 16:09 | -24.03367 | -44.53664 | 34961 ft | 493 kts | 61° |
| 2026-05-08 16:10 | -24.00328 | -44.46943 | 34975 ft | 492 kts | 61° |
| 2026-05-08 16:10 | -23.97283 | -44.40246 | 34973 ft | 492 kts | 60° |
| 2026-05-08 16:11 | -23.94233 | -44.33560 | 34974 ft | 491 kts | 60° |
| 2026-05-08 16:11 | -23.91192 | -44.26877 | 34966 ft | 491 kts | 61° |
| 2026-05-08 16:12 | -23.88157 | -44.20194 | 34978 ft | 491 kts | 61° |
| 2026-05-08 16:12 | -23.85183 | -44.13482 | 34972 ft | 491 kts | 62° |
| 2026-05-08 16:13 | -23.82026 | -44.06898 | 34973 ft | 486 kts | 51° |
| 2026-05-08 16:13 | -23.79826 | -44.04135 | 34974 ft | 479 kts | 38° |
| 2026-05-08 16:13 | -23.77198 | -44.01945 | 34958 ft | 473 kts | 26° |
| 2026-05-08 16:14 | -23.71338 | -43.98817 | 34949 ft | 469 kts | 20° |
| 2026-05-08 16:14 | -23.65452 | -43.95816 | 34947 ft | 470 kts | 20° |
| 2026-05-08 16:15 | -23.59518 | -43.92794 | 34949 ft | 471 kts | 20° |
| 2026-05-08 16:15 | -23.53577 | -43.89770 | 34949 ft | 472 kts | 20° |
| 2026-05-08 16:16 | -23.47630 | -43.86742 | 34960 ft | 472 kts | 20° |
| 2026-05-08 16:16 | -23.41681 | -43.83717 | 34963 ft | 472 kts | 20° |
| 2026-05-08 16:17 | -23.36695 | -43.81183 | 34953 ft | 472 kts | 21° |
| 2026-05-08 16:17 | -23.29770 | -43.77663 | 34955 ft | 473 kts | 21° |
| 2026-05-08 16:18 | -23.23822 | -43.74646 | 34535 ft | 464 kts | 21° |
| 2026-05-08 16:18 | -23.20939 | -43.73181 | 33947 ft | 452 kts | 21° |
| 2026-05-08 16:18 | -23.18116 | -43.71748 | 33151 ft | 444 kts | 21° |
| 2026-05-08 16:19 | -23.15338 | -43.70343 | 32143 ft | 440 kts | 20° |
| 2026-05-08 16:19 | -23.12522 | -43.68925 | 30675 ft | 451 kts | 21° |
| 2026-05-08 16:19 | -23.09652 | -43.67482 | 29152 ft | 458 kts | 21° |
| 2026-05-08 16:19 | -23.06752 | -43.66019 | 27591 ft | 461 kts | 21° |
| 2026-05-08 16:20 | -23.03837 | -43.64547 | 26105 ft | 462 kts | 22° |
| 2026-05-08 16:20 | -23.01009 | -43.62892 | 24688 ft | 464 kts | 35° |
| 2026-05-08 16:20 | -22.98767 | -43.60386 | 23320 ft | 465 kts | 52° |
| 2026-05-08 16:20 | -22.97047 | -43.57427 | 21779 ft | 463 kts | 59° |
| 2026-05-08 16:21 | -22.95649 | -43.54294 | 20307 ft | 460 kts | 65° |
| 2026-05-08 16:21 | -22.94665 | -43.51013 | 18915 ft | 459 kts | 80° |
| 2026-05-08 16:21 | -22.94511 | -43.47561 | 17467 ft | 456 kts | 88° |
| 2026-05-08 16:21 | -22.94515 | -43.44140 | 15984 ft | 451 kts | 88° |
| 2026-05-08 16:22 | -22.94532 | -43.40780 | 14797 ft | 439 kts | 88° |
| 2026-05-08 16:22 | -22.94531 | -43.38608 | 14032 ft | 432 kts | 87° |
| 2026-05-08 16:22 | -22.94481 | -43.34318 | 12356 ft | 419 kts | 86° |
| 2026-05-08 16:22 | -22.94406 | -43.31192 | 11105 ft | 410 kts | 85° |
| 2026-05-08 16:23 | -22.94314 | -43.28129 | 9870 ft | 403 kts | 85° |
| 2026-05-08 16:23 | -22.94217 | -43.25120 | 8420 ft | 398 kts | 85° |
| 2026-05-08 16:23 | -22.94121 | -43.22176 | 7141 ft | 390 kts | 84° |
| 2026-05-08 16:23 | -22.94061 | -43.20235 | 6269 ft | 386 kts | 84° |
| 2026-05-08 16:24 | -22.93975 | -43.17333 | 4806 ft | 383 kts | 84° |
| 2026-05-08 16:24 | -22.93895 | -43.14469 | 3468 ft | 375 kts | 85° |
| 2026-05-08 16:24 | -22.93822 | -43.11699 | 2652 ft | 355 kts | 87° |
| 2026-05-08 16:24 | -22.93683 | -43.09143 | 2311 ft | 327 kts | 78° |
| 2026-05-08 16:25 | -22.92781 | -43.07089 | 2184 ft | 285 kts | 46° |
| 2026-05-08 16:25 | -22.91216 | -43.06064 | 2172 ft | 250 kts | 10° |
| 2026-05-08 16:25 | -22.89607 | -43.06262 | 2176 ft | 227 kts | 331° |
| 2026-05-08 16:25 | -22.88592 | -43.07457 | 2155 ft | 213 kts | 295° |
| 2026-05-08 16:26 | -22.88055 | -43.08920 | 1900 ft | 204 kts | 293° |
| 2026-05-08 16:26 | -22.87569 | -43.10290 | 1598 ft | 182 kts | 294° |
| 2026-05-08 16:26 | -22.87143 | -43.11506 | 1387 ft | 165 kts | 293° |
| 2026-05-08 16:26 | -22.86752 | -43.12634 | 1148 ft | 154 kts | 293° |
| 2026-05-08 16:27 | -22.86526 | -43.13735 | 967 ft | 151 kts | 273° |
| 2026-05-08 16:27 | -22.86694 | -43.14852 | 823 ft | 152 kts | 252° |
| 2026-05-08 16:27 | -22.87243 | -43.15813 | 663 ft | 152 kts | 226° |
| 2026-05-08 16:27 | -22.88140 | -43.16391 | 492 ft | 151 kts | 195° |
| 2026-05-08 16:28 | -22.89174 | -43.16420 | 307 ft | 150 kts | 172° |
| 2026-05-08 16:28 | -22.90198 | -43.16339 | 96 ft | 149 kts | 177° |
| 2026-05-08 16:28 | -22.91126 | -43.16277 | 21 ft | 88 kts | 176° |
| 2026-05-08 16:28 | -22.91465 | -43.16256 | 20 ft | 33 kts | 176° |
| 2026-05-08 16:29 | -22.91594 | -43.16282 | 20 ft | 13 kts | 263° |
| 2026-05-08 16:29 | -22.91550 | -43.16352 | 20 ft | 11 kts | 316° |
| 2026-05-08 16:29 | -22.91502 | -43.16402 | 21 ft | 8 kts | 315° |
| 2026-05-08 16:29 | -22.91467 | -43.16437 | 22 ft | 6 kts | 318° |
| 2026-05-08 16:30 | -22.91442 | -43.16462 | 22 ft | 4 kts | 317° |
| 2026-05-08 16:30 | -22.91423 | -43.16480 | 22 ft | 3 kts | 317° |
| 2026-05-08 16:30 | -22.91412 | -43.16492 | 22 ft | 2 kts | 319° |
| 2026-05-08 16:30 | -22.91361 | -43.16504 | 24 ft | 12 kts | 357° |
| 2026-05-08 16:31 | -22.91277 | -43.16509 | 22 ft | 12 kts | 356° |
| 2026-05-08 16:31 | -22.91191 | -43.16515 | 22 ft | 12 kts | 356° |
| 2026-05-08 16:31 | -22.91108 | -43.16529 | 22 ft | 11 kts | 325° |
| 2026-05-08 16:31 | -22.91097 | -43.16581 | 22 ft | 3 kts | 268° |
| 2026-05-08 16:32 | -22.91098 | -43.16589 | 22 ft | 0 kts | 267° |